createdAt,value
2022-12-04T00:01:21.440Z,-0.39
2022-12-04T00:03:48.617Z,-0.37
2022-12-04T00:06:18.805Z,-0.37
2022-12-04T00:08:47.850Z,-0.37
2022-12-04T00:11:22.175Z,-0.34
2022-12-04T00:13:49.594Z,-0.34
2022-12-04T00:16:20.979Z,-0.33
2022-12-04T00:18:48.129Z,-0.32
2022-12-04T00:21:17.732Z,-0.33
2022-12-04T00:23:45.385Z,-0.32
2022-12-04T00:26:15.811Z,-0.31
2022-12-04T00:28:43.992Z,-0.34
2022-12-04T00:31:13.957Z,-0.33
2022-12-04T00:33:41.263Z,-0.34
2022-12-04T00:36:11.689Z,-0.34
2022-12-04T00:38:39.762Z,-0.36
2022-12-04T00:41:11.456Z,-0.38
2022-12-04T00:43:38.669Z,-0.37
2022-12-04T00:46:06.363Z,-0.35
2022-12-04T00:48:33.461Z,-0.34
2022-12-04T00:51:16.134Z,-0.36
2022-12-04T00:53:43.378Z,-0.35
2022-12-04T00:56:13.772Z,-0.36
2022-12-04T00:58:40.747Z,-0.37
2022-12-04T01:01:17.853Z,-0.38
2022-12-04T01:03:45.758Z,-0.36
2022-12-04T01:06:27.090Z,-0.34
2022-12-04T01:08:55.156Z,-0.36
2022-12-04T01:11:23.742Z,-0.36
2022-12-04T01:13:51.335Z,-0.35
2022-12-04T01:16:33.750Z,-0.35
2022-12-04T01:19:01.442Z,-0.34
2022-12-04T01:21:28.848Z,-0.34
2022-12-04T01:23:55.927Z,-0.34
2022-12-04T01:26:23.492Z,-0.32
2022-12-04T01:28:50.696Z,-0.30
2022-12-04T01:31:19.882Z,-0.30
2022-12-04T01:33:47.993Z,-0.32
2022-12-04T01:36:17.660Z,-0.30
2022-12-04T01:38:45.373Z,-0.30
2022-12-04T01:41:14.762Z,-0.31
2022-12-04T01:43:42.727Z,-0.31
2022-12-04T01:46:10.595Z,-0.30
2022-12-04T01:48:46.873Z,-0.32
2022-12-04T01:51:40.117Z,-0.29
2022-12-04T01:54:12.200Z,-0.30
2022-12-04T01:56:47.246Z,-0.31
2022-12-04T01:59:17.615Z,-0.34
2022-12-04T02:01:54.285Z,-0.34
2022-12-04T02:04:21.677Z,-0.32
2022-12-04T02:06:48.819Z,-0.30
2022-12-04T02:09:19.325Z,-0.31
2022-12-04T02:12:18.972Z,-0.30
2022-12-04T02:15:12.195Z,-0.29
2022-12-04T02:18:27.268Z,-0.28
2022-12-04T02:21:03.215Z,-0.28
2022-12-04T02:23:36.175Z,-0.28
2022-12-04T02:26:38.294Z,-0.26
2022-12-04T02:29:38.159Z,-0.25
2022-12-04T02:32:12.771Z,-0.25
2022-12-04T02:34:44.002Z,-0.26
2022-12-04T02:37:30.562Z,-0.24
2022-12-04T02:40:10.426Z,-0.24
2022-12-04T02:42:45.957Z,-0.22
2022-12-04T02:45:19.912Z,-0.24
2022-12-04T02:47:47.522Z,-0.26
2022-12-04T02:50:19.879Z,-0.27
2022-12-04T02:52:56.041Z,-0.30
2022-12-04T02:55:46.231Z,-0.27
2022-12-04T02:58:23.084Z,-0.28
2022-12-04T03:00:52.101Z,-0.30
2022-12-04T03:03:25.444Z,-0.30
2022-12-04T03:05:52.169Z,-0.26
2022-12-04T03:08:24.517Z,-0.26
2022-12-04T03:10:55.802Z,-0.27
2022-12-04T03:13:47.868Z,-0.27
2022-12-04T03:16:28.389Z,-0.29
2022-12-04T03:19:01.938Z,-0.26
2022-12-04T03:21:33.479Z,-0.28
2022-12-04T03:24:12.597Z,-0.27
2022-12-04T03:26:47.166Z,-0.29
2022-12-04T03:29:21.411Z,-0.29
2022-12-04T03:31:55.904Z,-0.29
2022-12-04T03:34:35.565Z,-0.28
2022-12-04T03:37:12.377Z,-0.25
2022-12-04T03:40:03.675Z,-0.25
2022-12-04T03:42:50.333Z,-0.26
2022-12-04T03:45:23.233Z,-0.24
2022-12-04T03:48:22.633Z,-0.25
2022-12-04T03:51:02.646Z,-0.28
2022-12-04T03:53:40.151Z,-0.28
2022-12-04T03:56:14.206Z,-0.28
2022-12-04T03:58:48.178Z,-0.27
2022-12-04T04:01:20.555Z,-0.26
2022-12-04T04:03:51.768Z,-0.28
2022-12-04T04:06:38.131Z,-0.28
2022-12-04T04:09:13.279Z,-0.29
2022-12-04T04:12:11.438Z,-0.28
2022-12-04T04:15:21.908Z,-0.30
2022-12-04T04:18:08.877Z,-0.28
2022-12-04T04:21:03.744Z,-0.30
2022-12-04T04:23:56.573Z,-0.29
2022-12-04T04:26:27.119Z,-0.30
2022-12-04T04:28:54.039Z,-0.28
2022-12-04T04:31:43.542Z,-0.27
2022-12-04T04:34:21.875Z,-0.28
2022-12-04T04:36:59.344Z,-0.28
2022-12-04T04:39:49.248Z,-0.29
2022-12-04T04:42:33.264Z,-0.27
2022-12-04T04:45:25.019Z,-0.29
2022-12-04T04:48:02.643Z,-0.30
2022-12-04T04:50:30.284Z,-0.30
2022-12-04T04:53:04.430Z,-0.32
2022-12-04T04:55:34.734Z,-0.28
2022-12-04T04:58:14.096Z,-0.27
2022-12-04T05:00:45.149Z,-0.30
2022-12-04T05:03:12.081Z,-0.28
2022-12-04T05:05:39.042Z,-0.26
2022-12-04T05:08:06.593Z,-0.27
2022-12-04T05:10:33.496Z,-0.25
2022-12-04T05:13:00.359Z,-0.28
2022-12-04T05:15:27.276Z,-0.29
2022-12-04T05:17:54.182Z,-0.29
2022-12-04T05:20:21.018Z,-0.29
2022-12-04T05:22:47.937Z,-0.30
2022-12-04T05:25:14.832Z,-0.29
2022-12-04T05:27:41.727Z,-0.28
2022-12-04T05:30:10.468Z,-0.28
2022-12-04T05:32:37.359Z,-0.32
2022-12-04T05:35:10.617Z,-0.30
2022-12-04T05:37:39.351Z,-0.29
2022-12-04T05:40:07.637Z,-0.29
2022-12-04T05:42:35.022Z,-0.25
2022-12-04T05:45:02.108Z,-0.28
2022-12-04T05:47:28.919Z,-0.28
2022-12-04T05:49:56.007Z,-0.28
2022-12-04T05:52:23.002Z,-0.27
2022-12-04T05:54:49.883Z,-0.26
2022-12-04T05:57:16.695Z,-0.27
2022-12-04T05:59:43.497Z,-0.27
2022-12-04T06:02:10.314Z,-0.27
2022-12-04T06:04:38.631Z,-0.25
2022-12-04T06:07:05.541Z,-0.26
2022-12-04T06:09:32.391Z,-0.25
2022-12-04T06:11:59.479Z,-0.26
2022-12-04T06:14:26.530Z,-0.24
2022-12-04T06:16:53.526Z,-0.21
2022-12-04T06:19:22.484Z,-0.20
2022-12-04T06:21:51.887Z,-0.20
2022-12-04T06:24:23.109Z,-0.19
2022-12-04T06:27:25.541Z,-0.20
2022-12-04T06:29:37.387Z,-0.19
2022-12-04T06:32:04.620Z,-0.19
2022-12-04T06:34:32.621Z,-0.20
2022-12-04T06:36:59.529Z,-0.20
2022-12-04T06:39:26.406Z,-0.17
2022-12-04T06:41:53.224Z,-0.17
2022-12-04T06:44:20.040Z,-0.17
2022-12-04T06:46:48.027Z,-0.17
2022-12-04T06:49:16.064Z,-0.17
2022-12-04T06:51:42.830Z,-0.14
2022-12-04T06:54:10.979Z,-0.14
2022-12-04T06:56:37.923Z,-0.15
2022-12-04T06:59:05.821Z,-0.17
2022-12-04T07:01:34.649Z,-0.16
2022-12-04T07:04:04.094Z,-0.19
2022-12-04T07:06:36.392Z,-0.18
2022-12-04T07:09:10.007Z,-0.18
2022-12-04T07:11:37.487Z,-0.18
2022-12-04T07:14:04.763Z,-0.18
2022-12-04T07:16:38.361Z,-0.19
2022-12-04T07:19:08.290Z,-0.19
2022-12-04T07:21:36.434Z,-0.21
2022-12-04T07:24:03.517Z,-0.22
2022-12-04T07:26:31.186Z,-0.23
2022-12-04T07:28:59.069Z,-0.21
2022-12-04T07:31:27.867Z,-0.17
2022-12-04T07:33:55.358Z,-0.17
2022-12-04T07:36:23.697Z,-0.19
2022-12-04T07:38:51.492Z,-0.19
2022-12-04T07:41:20.741Z,-0.19
2022-12-04T07:43:47.921Z,-0.18
2022-12-04T07:46:18.385Z,-0.19
2022-12-04T07:48:45.498Z,-0.19
2022-12-04T07:51:14.884Z,-0.19
2022-12-04T07:53:42.554Z,-0.19
2022-12-04T07:56:11.106Z,-0.17
2022-12-04T07:58:38.505Z,-0.14
2022-12-04T08:01:11.174Z,-0.16
2022-12-04T08:03:45.200Z,-0.12
2022-12-04T08:06:15.009Z,-0.12
2022-12-04T08:08:42.088Z,-0.12
2022-12-04T08:11:15.065Z,-0.12
2022-12-04T08:13:42.325Z,-0.08
2022-12-04T08:16:11.673Z,-0.06
2022-12-04T08:18:38.606Z,-0.06
2022-12-04T08:21:12.793Z,-0.04
2022-12-04T08:23:41.161Z,-0.06
2022-12-04T08:26:08.904Z,-0.01
2022-12-04T08:28:36.222Z,-0.01
2022-12-04T08:31:18.231Z,-0.02
2022-12-04T08:33:46.366Z,0.01
2022-12-04T08:36:16.119Z,0.01
2022-12-04T08:38:43.277Z,0.02
2022-12-04T08:41:13.094Z,0.04
2022-12-04T08:43:40.295Z,0.06
2022-12-04T08:46:10.581Z,0.06
2022-12-04T08:48:38.419Z,0.05
2022-12-04T08:51:08.301Z,0.05
2022-12-04T08:53:38.847Z,0.07
2022-12-04T08:56:05.996Z,0.03
2022-12-04T08:58:33.026Z,0.02
2022-12-04T09:01:08.363Z,0.06
2022-12-04T09:03:35.789Z,0.05
2022-12-04T09:06:04.844Z,0.05
2022-12-04T09:08:32.740Z,0.01
2022-12-04T09:11:07.827Z,0.02
2022-12-04T09:13:35.813Z,0.03
2022-12-04T09:16:08.709Z,0.04
2022-12-04T09:18:36.974Z,0.05
2022-12-04T09:21:06.980Z,0.05
2022-12-04T09:23:35.757Z,0.04
2022-12-04T09:26:03.734Z,0.04
2022-12-04T09:28:31.230Z,0.04
2022-12-04T09:31:03.923Z,0.04
2022-12-04T09:33:31.272Z,0.04
2022-12-04T09:36:03.031Z,0.03
2022-12-04T09:38:30.896Z,0.09
2022-12-04T09:41:22.650Z,0.14
2022-12-04T09:43:58.842Z,0.19
2022-12-04T09:46:39.457Z,0.19
2022-12-04T09:49:22.065Z,0.16
2022-12-04T09:51:50.802Z,0.16
2022-12-04T09:54:23.756Z,0.16
2022-12-04T09:57:03.814Z,0.18
2022-12-04T09:59:35.019Z,0.15
2022-12-04T10:02:19.687Z,0.12
2022-12-04T10:04:46.631Z,0.15
2022-12-04T10:07:18.933Z,0.14
2022-12-04T10:09:54.421Z,0.14
2022-12-04T10:12:37.808Z,0.22
2022-12-04T10:15:16.895Z,0.22
2022-12-04T10:18:14.576Z,0.22
2022-12-04T10:20:53.273Z,0.22
2022-12-04T10:23:53.105Z,0.22
2022-12-04T10:26:24.584Z,0.21
2022-12-04T10:28:57.813Z,0.24
2022-12-04T10:31:26.342Z,0.27
2022-12-04T10:33:53.320Z,0.25
2022-12-04T10:36:24.935Z,0.20
2022-12-04T10:38:57.170Z,0.24
2022-12-04T10:41:51.833Z,0.22
2022-12-04T10:44:20.715Z,0.19
2022-12-04T10:46:48.369Z,0.21
2022-12-04T10:49:29.060Z,0.24
2022-12-04T10:51:56.504Z,0.22
2022-12-04T10:54:32.849Z,0.23
2022-12-04T10:57:06.029Z,0.22
2022-12-04T10:59:34.613Z,0.23
2022-12-04T11:02:28.537Z,0.21
2022-12-04T11:05:01.926Z,0.29
2022-12-04T11:07:32.427Z,0.32
2022-12-04T11:10:21.522Z,0.33
2022-12-04T11:13:06.180Z,0.29
2022-12-04T11:15:42.897Z,0.29
2022-12-04T11:18:17.979Z,0.30
2022-12-04T11:21:07.916Z,0.31
2022-12-04T11:23:42.857Z,0.35
2022-12-04T11:26:11.031Z,0.37
2022-12-04T11:28:42.330Z,0.36
2022-12-04T11:31:16.694Z,0.35
2022-12-04T11:33:48.382Z,0.38
2022-12-04T11:36:24.009Z,0.38
2022-12-04T11:39:04.824Z,0.39
2022-12-04T11:41:33.187Z,0.41
2022-12-04T11:44:01.078Z,0.47
2022-12-04T11:46:36.038Z,0.52
2022-12-04T11:49:04.452Z,0.54
2022-12-04T11:52:02.453Z,0.52
2022-12-04T11:54:48.534Z,0.47
2022-12-04T11:57:37.934Z,0.50
2022-12-04T12:00:19.039Z,0.50
2022-12-04T12:03:10.434Z,0.54
2022-12-04T12:06:08.475Z,0.58
2022-12-04T12:09:09.308Z,0.57
2022-12-04T12:11:42.311Z,0.55
2022-12-04T12:14:17.557Z,0.51
2022-12-04T12:16:59.403Z,0.55
2022-12-04T12:19:57.181Z,0.59
2022-12-04T12:22:42.812Z,0.62
2022-12-04T12:25:27.010Z,0.57
2022-12-04T12:28:18.132Z,0.54
2022-12-04T12:31:10.127Z,0.60
2022-12-04T12:34:01.434Z,0.61
2022-12-04T12:36:38.793Z,0.62
2022-12-04T12:39:16.673Z,0.59
2022-12-04T12:41:49.481Z,0.65
2022-12-04T12:44:58.165Z,0.69
2022-12-04T12:47:31.159Z,0.66
2022-12-04T12:50:36.613Z,0.72
2022-12-04T12:53:13.598Z,0.71
2022-12-04T12:55:46.123Z,0.71
2022-12-04T12:58:57.459Z,0.69
2022-12-04T13:01:45.938Z,0.73
2022-12-04T13:04:37.540Z,0.76
2022-12-04T13:07:27.629Z,0.78
2022-12-04T13:10:17.301Z,0.77
2022-12-04T13:12:49.874Z,0.74
2022-12-04T13:15:20.598Z,0.77
2022-12-04T13:17:49.905Z,0.76
2022-12-04T13:20:28.958Z,0.75
2022-12-04T13:23:23.588Z,0.77
2022-12-04T13:26:10.473Z,0.77
2022-12-04T13:28:40.281Z,0.78
2022-12-04T13:31:19.306Z,0.77
2022-12-04T13:34:07.716Z,0.79
2022-12-04T13:36:52.760Z,0.79
2022-12-04T13:39:31.826Z,0.79
2022-12-04T13:42:02.636Z,0.75
2022-12-04T13:44:31.880Z,0.73
2022-12-04T13:47:10.170Z,0.74
2022-12-04T13:49:42.464Z,0.75
2022-12-04T13:52:40.977Z,0.78
2022-12-04T13:55:28.241Z,0.76
2022-12-04T13:58:01.236Z,0.74
2022-12-04T14:00:35.291Z,0.75
2022-12-04T14:03:21.611Z,0.75
2022-12-04T14:05:48.884Z,0.76
2022-12-04T14:08:25.507Z,0.74
2022-12-04T14:11:15.239Z,0.74
2022-12-04T14:13:52.517Z,0.71
2022-12-04T14:16:41.192Z,0.75
2022-12-04T14:19:09.136Z,0.72
2022-12-04T14:21:44.626Z,0.75
2022-12-04T14:24:25.609Z,0.75
2022-12-04T14:27:11.327Z,0.71
2022-12-04T14:29:49.700Z,0.70
2022-12-04T14:32:24.638Z,0.69
2022-12-04T14:34:52.051Z,0.69
2022-12-04T14:37:44.660Z,0.66
2022-12-04T14:40:27.215Z,0.64
2022-12-04T14:42:55.065Z,0.66
2022-12-04T14:45:43.902Z,0.69
2022-12-04T14:48:29.045Z,0.72
2022-12-04T14:51:12.807Z,0.72
2022-12-04T14:54:11.894Z,0.69
2022-12-04T14:56:50.774Z,0.67
2022-12-04T14:59:21.359Z,0.66
2022-12-04T15:01:52.123Z,0.68
2022-12-04T15:04:33.178Z,0.68
2022-12-04T15:07:01.036Z,0.69
2022-12-04T15:09:47.332Z,0.72
2022-12-04T15:12:37.656Z,0.70
2022-12-04T15:15:26.672Z,0.69
2022-12-04T15:18:15.181Z,0.68
2022-12-04T15:20:56.732Z,0.64
2022-12-04T15:23:37.474Z,0.69
2022-12-04T15:26:15.744Z,0.70
2022-12-04T15:28:45.514Z,0.69
2022-12-04T15:31:29.816Z,0.66
2022-12-04T15:34:01.432Z,0.66
2022-12-04T15:36:28.222Z,0.66
2022-12-04T15:38:55.716Z,0.64
2022-12-04T15:41:34.480Z,0.62
2022-12-04T15:44:03.820Z,0.60
2022-12-04T15:46:34.370Z,0.62
2022-12-04T15:49:29.133Z,0.63
2022-12-04T15:52:11.319Z,0.62
2022-12-04T15:54:43.693Z,0.62
2022-12-04T15:57:37.072Z,0.66
2022-12-04T16:00:07.411Z,0.67
2022-12-04T16:02:41.814Z,0.66
2022-12-04T16:05:20.932Z,0.67
2022-12-04T16:07:53.480Z,0.68
2022-12-04T16:10:29.921Z,0.71
2022-12-04T16:13:01.017Z,0.72
2022-12-04T16:15:44.047Z,0.73
2022-12-04T16:18:14.212Z,0.75
2022-12-04T16:20:41.585Z,0.73
2022-12-04T16:23:09.994Z,0.75
2022-12-04T16:25:37.335Z,0.78
2022-12-04T16:28:04.449Z,0.79
2022-12-04T16:30:34.243Z,0.76
2022-12-04T16:33:01.498Z,0.76
2022-12-04T16:35:30.628Z,0.81
2022-12-04T16:37:57.673Z,0.83
2022-12-04T16:40:24.562Z,0.85
2022-12-04T16:42:51.424Z,0.84
2022-12-04T16:45:22.194Z,0.85
2022-12-04T16:47:49.537Z,0.89
2022-12-04T16:50:17.153Z,0.88
2022-12-04T16:52:44.176Z,0.90
2022-12-04T16:55:19.144Z,0.92
2022-12-04T16:57:46.508Z,0.91
2022-12-04T17:00:15.708Z,0.96
2022-12-04T17:02:43.336Z,0.96
2022-12-04T17:05:20.606Z,0.95
2022-12-04T17:07:53.897Z,0.97
2022-12-04T17:10:24.329Z,1.00
2022-12-04T17:13:00.441Z,0.99
2022-12-04T17:15:27.713Z,1.03
2022-12-04T17:17:54.815Z,1.03
2022-12-04T17:20:22.331Z,1.04
2022-12-04T17:22:49.758Z,1.07
2022-12-04T17:25:20.307Z,1.06
2022-12-04T17:27:48.027Z,1.06
2022-12-04T17:30:16.974Z,1.11
2022-12-04T17:32:43.922Z,1.10
2022-12-04T17:35:12.756Z,1.10
2022-12-04T17:37:39.800Z,1.14
2022-12-04T17:40:08.010Z,1.11
2022-12-04T17:42:35.182Z,1.12
2022-12-04T17:45:02.484Z,1.12
2022-12-04T17:47:34.582Z,1.12
2022-12-04T17:50:01.800Z,1.17
2022-12-04T17:52:32.795Z,1.17
2022-12-04T17:54:59.914Z,1.19
2022-12-04T17:57:27.994Z,1.24
2022-12-04T17:59:54.975Z,1.25
2022-12-04T18:02:21.911Z,1.25
2022-12-04T18:04:49.021Z,1.26
2022-12-04T18:07:16.037Z,1.27
2022-12-04T18:09:42.943Z,1.30
2022-12-04T18:12:09.946Z,1.29
2022-12-04T18:14:37.335Z,1.31
2022-12-04T18:17:04.634Z,1.31
2022-12-04T18:19:32.491Z,1.32
2022-12-04T18:22:00.016Z,1.30
2022-12-04T18:24:27.988Z,1.30
2022-12-04T18:26:54.903Z,1.32
2022-12-04T18:29:26.575Z,1.32
2022-12-04T18:34:38.481Z,1.34
2022-12-04T18:37:05.664Z,1.37
2022-12-04T18:39:32.579Z,1.35
2022-12-04T18:42:00.177Z,1.35
2022-12-04T18:44:27.216Z,1.36
2022-12-04T18:46:54.143Z,1.34
2022-12-04T18:49:21.165Z,1.35
2022-12-04T18:51:50.005Z,1.36
2022-12-04T18:54:29.073Z,1.37
2022-12-04T18:56:56.020Z,1.40
2022-12-04T18:59:25.762Z,1.41
2022-12-04T19:01:54.342Z,1.38
2022-12-04T19:04:23.517Z,1.38
2022-12-04T19:06:53.868Z,1.38
2022-12-04T19:09:40.740Z,1.35
2022-12-04T19:12:11.904Z,1.34
2022-12-04T19:14:40.186Z,1.34
2022-12-04T19:17:07.927Z,1.34
2022-12-04T19:19:35.023Z,1.36
2022-12-04T19:22:02.545Z,1.34
2022-12-04T19:24:29.574Z,1.36
2022-12-04T19:26:56.556Z,1.35
2022-12-04T19:29:23.810Z,1.35
2022-12-04T19:31:54.609Z,1.39
2022-12-04T19:34:24.569Z,1.39
2022-12-04T19:36:54.691Z,1.38
2022-12-04T19:39:21.524Z,1.39
2022-12-04T19:41:48.996Z,1.37
2022-12-04T19:44:47.409Z,1.38
2022-12-04T19:47:03.710Z,1.37
2022-12-04T19:49:30.708Z,1.39
2022-12-04T19:51:58.318Z,1.44
2022-12-04T19:54:26.327Z,1.43
2022-12-04T19:56:53.223Z,1.44
2022-12-04T19:59:20.776Z,1.44
2022-12-04T20:01:48.364Z,1.44
2022-12-04T20:04:15.844Z,1.45
2022-12-04T20:06:45.636Z,1.47
2022-12-04T20:09:20.496Z,1.45
2022-12-04T20:11:48.031Z,1.43
2022-12-04T20:14:15.464Z,1.46
2022-12-04T20:16:43.306Z,1.47
2022-12-04T20:19:15.217Z,1.45
2022-12-04T20:21:43.304Z,1.44
2022-12-04T20:24:13.971Z,1.47
2022-12-04T20:26:43.197Z,1.46
2022-12-04T20:29:13.318Z,1.49
2022-12-04T20:31:42.363Z,1.50
2022-12-04T20:34:13.518Z,1.49
2022-12-04T20:36:45.019Z,1.53
2022-12-04T20:39:13.999Z,1.50
2022-12-04T20:41:41.595Z,1.51
2022-12-04T20:44:12.482Z,1.52
2022-12-04T20:46:40.525Z,1.51
2022-12-04T20:49:10.711Z,1.53
2022-12-04T20:51:41.292Z,1.55
2022-12-04T20:54:11.418Z,1.59
2022-12-04T20:56:38.828Z,1.60
2022-12-04T20:59:12.715Z,1.60
2022-12-04T21:01:40.474Z,1.60
2022-12-04T21:04:08.007Z,1.60
2022-12-04T21:06:38.547Z,1.61
2022-12-04T21:09:14.548Z,1.60
2022-12-04T21:11:44.295Z,1.64
2022-12-04T21:14:32.566Z,1.66
2022-12-04T21:16:59.894Z,1.69
2022-12-04T21:19:27.157Z,1.67
2022-12-04T21:21:54.394Z,1.67
2022-12-04T21:24:23.646Z,1.70
2022-12-04T21:26:50.475Z,1.71
2022-12-04T21:29:17.341Z,1.74
2022-12-04T21:31:44.744Z,1.73
2022-12-04T21:34:15.943Z,1.76
2022-12-04T21:36:43.710Z,1.74
2022-12-04T21:39:11.045Z,1.78
2022-12-04T21:41:56.609Z,1.79
2022-12-04T21:44:24.062Z,1.78
2022-12-04T21:46:51.340Z,1.79
2022-12-04T21:49:19.693Z,1.79
2022-12-04T21:52:02.335Z,1.82
2022-12-04T21:54:29.820Z,1.85
2022-12-04T21:56:57.922Z,1.84
2022-12-04T21:59:26.487Z,1.83
2022-12-04T22:01:53.778Z,1.88
2022-12-04T22:04:21.745Z,1.88
2022-12-04T22:06:48.822Z,1.92
2022-12-04T22:09:15.840Z,1.92
2022-12-04T22:11:43.341Z,1.94
2022-12-04T22:14:11.122Z,1.94
2022-12-04T22:16:42.301Z,1.96
2022-12-04T22:19:13.250Z,1.95
2022-12-04T22:21:40.514Z,1.97
2022-12-04T22:24:08.436Z,1.96
2022-12-04T22:26:36.213Z,1.95
2022-12-04T22:29:20.733Z,1.98
2022-12-04T22:31:51.424Z,1.98
2022-12-04T22:34:18.532Z,1.98
2022-12-04T22:36:45.839Z,1.99
2022-12-04T22:39:12.857Z,2.03
2022-12-04T22:41:40.070Z,2.05
2022-12-04T22:44:07.941Z,2.04
2022-12-04T22:46:34.976Z,2.08
2022-12-04T22:49:02.250Z,2.08
2022-12-04T22:51:29.273Z,2.08
2022-12-04T22:53:59.765Z,2.12
2022-12-04T22:56:32.041Z,2.08
2022-12-04T22:58:59.678Z,2.11
2022-12-04T23:01:34.114Z,2.12
2022-12-04T23:04:02.927Z,2.12
2022-12-04T23:06:32.004Z,2.14
2022-12-04T23:09:14.262Z,2.18
2022-12-04T23:11:41.956Z,2.18
2022-12-04T23:14:13.078Z,2.20
2022-12-04T23:16:40.242Z,2.20
2022-12-04T23:19:08.757Z,2.22
2022-12-04T23:21:35.688Z,2.24
2022-12-04T23:24:02.785Z,2.25
2022-12-04T23:26:39.419Z,2.26
2022-12-04T23:29:23.307Z,2.26
2022-12-04T23:31:54.555Z,2.28
2022-12-04T23:34:21.443Z,2.29
2022-12-04T23:36:48.287Z,2.30
2022-12-04T23:39:15.137Z,2.32
2022-12-04T23:41:41.970Z,2.33
2022-12-04T23:44:08.868Z,2.34
2022-12-04T23:46:35.852Z,2.34
2022-12-04T23:49:03.300Z,2.34
2022-12-04T23:51:30.581Z,2.37
2022-12-04T23:53:57.485Z,2.39
2022-12-04T23:56:26.575Z,2.40
2022-12-04T23:58:55.799Z,2.42
